sensor_id;sensor_type;location;lat;lon;timestamp;P1;durP1;ratioP1;P2;durP2;ratioP2
54125;SDS011;40360;52.992;6.796;2023-03-14T00:01:33;32.10;;;6.65;;
54125;SDS011;40360;52.992;6.796;2023-03-14T00:03:58;19.60;;;5.95;;
54125;SDS011;40360;52.992;6.796;2023-03-14T00:06:24;25.42;;;5.47;;
54125;SDS011;40360;52.992;6.796;2023-03-14T00:08:50;21.85;;;5.47;;
54125;SDS011;40360;52.992;6.796;2023-03-14T00:11:20;25.67;;;6.57;;
54125;SDS011;40360;52.992;6.796;2023-03-14T00:13:48;20.40;;;6.88;;
54125;SDS011;40360;52.992;6.796;2023-03-14T00:16:15;25.95;;;6.57;;
54125;SDS011;40360;52.992;6.796;2023-03-14T00:18:48;18.88;;;6.00;;
54125;SDS011;40360;52.992;6.796;2023-03-14T00:21:17;21.33;;;6.50;;
54125;SDS011;40360;52.992;6.796;2023-03-14T00:24:05;17.83;;;5.82;;
54125;SDS011;40360;52.992;6.796;2023-03-14T00:26:39;21.80;;;6.13;;
54125;SDS011;40360;52.992;6.796;2023-03-14T00:29:14;21.25;;;5.63;;
54125;SDS011;40360;52.992;6.796;2023-03-14T00:34:50;21.83;;;6.68;;
54125;SDS011;40360;52.992;6.796;2023-03-14T00:37:15;25.85;;;6.10;;
54125;SDS011;40360;52.992;6.796;2023-03-14T00:39:42;24.73;;;5.88;;
54125;SDS011;40360;52.992;6.796;2023-03-14T00:42:16;23.50;;;5.78;;
54125;SDS011;40360;52.992;6.796;2023-03-14T00:44:42;19.10;;;5.07;;
54125;SDS011;40360;52.992;6.796;2023-03-14T00:47:08;21.98;;;7.20;;
54125;SDS011;40360;52.992;6.796;2023-03-14T00:49:40;16.33;;;4.95;;
54125;SDS011;40360;52.992;6.796;2023-03-14T00:52:08;26.17;;;6.00;;
54125;SDS011;40360;52.992;6.796;2023-03-14T00:54:40;21.55;;;6.03;;
54125;SDS011;40360;52.992;6.796;2023-03-14T00:57:09;23.67;;;7.05;;
54125;SDS011;40360;52.992;6.796;2023-03-14T00:59:38;25.65;;;4.90;;
54125;SDS011;40360;52.992;6.796;2023-03-14T01:02:03;23.90;;;6.32;;
54125;SDS011;40360;52.992;6.796;2023-03-14T01:04:29;16.85;;;4.65;;
54125;SDS011;40360;52.992;6.796;2023-03-14T01:06:56;23.55;;;6.30;;
54125;SDS011;40360;52.992;6.796;2023-03-14T01:09:21;22.23;;;6.03;;
54125;SDS011;40360;52.992;6.796;2023-03-14T01:11:47;25.33;;;6.13;;
54125;SDS011;40360;52.992;6.796;2023-03-14T01:14:14;25.73;;;6.70;;
54125;SDS011;40360;52.992;6.796;2023-03-14T01:16:43;21.58;;;6.25;;
54125;SDS011;40360;52.992;6.796;2023-03-14T01:19:09;20.38;;;5.72;;
54125;SDS011;40360;52.992;6.796;2023-03-14T01:21:35;18.17;;;6.00;;
54125;SDS011;40360;52.992;6.796;2023-03-14T01:24:04;17.95;;;6.60;;
54125;SDS011;40360;52.992;6.796;2023-03-14T01:26:31;27.05;;;7.75;;
54125;SDS011;40360;52.992;6.796;2023-03-14T01:29:05;22.55;;;5.72;;
54125;SDS011;40360;52.992;6.796;2023-03-14T01:31:34;18.52;;;6.55;;
54125;SDS011;40360;52.992;6.796;2023-03-14T01:34:07;24.98;;;6.75;;
54125;SDS011;40360;52.992;6.796;2023-03-14T01:36:33;24.88;;;5.55;;
54125;SDS011;40360;52.992;6.796;2023-03-14T01:38:58;23.60;;;7.75;;
54125;SDS011;40360;52.992;6.796;2023-03-14T01:41:24;15.38;;;5.03;;
54125;SDS011;40360;52.992;6.796;2023-03-14T01:43:51;19.55;;;7.03;;
54125;SDS011;40360;52.992;6.796;2023-03-14T01:49:31;22.63;;;5.80;;
54125;SDS011;40360;52.992;6.796;2023-03-14T01:52:07;21.20;;;5.13;;
54125;SDS011;40360;52.992;6.796;2023-03-14T01:54:51;13.32;;;6.22;;
54125;SDS011;40360;52.992;6.796;2023-03-14T01:57:37;17.77;;;5.25;;
54125;SDS011;40360;52.992;6.796;2023-03-14T02:00:18;20.25;;;5.90;;
54125;SDS011;40360;52.992;6.796;2023-03-14T02:02:58;21.52;;;5.07;;
54125;SDS011;40360;52.992;6.796;2023-03-14T02:05:40;15.85;;;4.80;;
54125;SDS011;40360;52.992;6.796;2023-03-14T02:08:10;17.17;;;4.55;;
54125;SDS011;40360;52.992;6.796;2023-03-14T02:11:03;19.10;;;4.47;;
54125;SDS011;40360;52.992;6.796;2023-03-14T02:13:38;12.25;;;3.75;;
54125;SDS011;40360;52.992;6.796;2023-03-14T02:16:19;17.52;;;4.47;;
54125;SDS011;40360;52.992;6.796;2023-03-14T02:18:47;14.43;;;4.45;;
54125;SDS011;40360;52.992;6.796;2023-03-14T02:29:47;21.35;;;4.82;;
54125;SDS011;40360;52.992;6.796;2023-03-14T02:32:21;14.38;;;3.72;;
54125;SDS011;40360;52.992;6.796;2023-03-14T02:34:53;15.93;;;4.80;;
54125;SDS011;40360;52.992;6.796;2023-03-14T02:37:36;15.53;;;4.77;;
54125;SDS011;40360;52.992;6.796;2023-03-14T02:40:11;18.48;;;4.68;;
54125;SDS011;40360;52.992;6.796;2023-03-14T02:42:37;19.95;;;4.85;;
54125;SDS011;40360;52.992;6.796;2023-03-14T02:47:40;18.27;;;4.88;;
54125;SDS011;40360;52.992;6.796;2023-03-14T02:50:25;18.17;;;4.50;;
54125;SDS011;40360;52.992;6.796;2023-03-14T02:53:29;16.65;;;5.22;;
54125;SDS011;40360;52.992;6.796;2023-03-14T02:56:18;20.27;;;5.07;;
54125;SDS011;40360;52.992;6.796;2023-03-14T02:58:56;20.65;;;5.70;;
54125;SDS011;40360;52.992;6.796;2023-03-14T03:01:22;18.00;;;5.35;;
54125;SDS011;40360;52.992;6.796;2023-03-14T03:03:51;17.48;;;6.00;;
54125;SDS011;40360;52.992;6.796;2023-03-14T03:06:20;14.13;;;5.55;;
54125;SDS011;40360;52.992;6.796;2023-03-14T03:08:56;13.15;;;5.07;;
54125;SDS011;40360;52.992;6.796;2023-03-14T03:11:49;16.67;;;6.22;;
54125;SDS011;40360;52.992;6.796;2023-03-14T03:14:17;20.65;;;6.75;;
54125;SDS011;40360;52.992;6.796;2023-03-14T03:16:46;15.93;;;5.07;;
54125;SDS011;40360;52.992;6.796;2023-03-14T03:19:16;15.40;;;5.00;;
54125;SDS011;40360;52.992;6.796;2023-03-14T03:21:48;12.90;;;4.95;;
54125;SDS011;40360;52.992;6.796;2023-03-14T03:24:29;12.70;;;4.85;;
54125;SDS011;40360;52.992;6.796;2023-03-14T03:26:58;11.30;;;4.45;;
54125;SDS011;40360;52.992;6.796;2023-03-14T03:29:24;10.85;;;3.97;;
54125;SDS011;40360;52.992;6.796;2023-03-14T03:31:50;12.05;;;4.43;;
54125;SDS011;40360;52.992;6.796;2023-03-14T03:34:36;13.57;;;3.88;;
54125;SDS011;40360;52.992;6.796;2023-03-14T03:37:03;9.88;;;4.25;;
54125;SDS011;40360;52.992;6.796;2023-03-14T03:39:34;17.70;;;4.63;;
54125;SDS011;40360;52.992;6.796;2023-03-14T03:42:03;15.80;;;4.43;;
54125;SDS011;40360;52.992;6.796;2023-03-14T03:44:37;15.05;;;6.20;;
54125;SDS011;40360;52.992;6.796;2023-03-14T03:47:06;14.80;;;4.38;;
54125;SDS011;40360;52.992;6.796;2023-03-14T03:49:32;11.85;;;4.20;;
54125;SDS011;40360;52.992;6.796;2023-03-14T03:52:01;13.00;;;4.28;;
54125;SDS011;40360;52.992;6.796;2023-03-14T03:54:33;15.55;;;4.88;;
54125;SDS011;40360;52.992;6.796;2023-03-14T04:00:04;10.45;;;4.05;;
54125;SDS011;40360;52.992;6.796;2023-03-14T04:02:40;14.15;;;5.65;;
54125;SDS011;40360;52.992;6.796;2023-03-14T04:05:06;14.20;;;6.15;;
54125;SDS011;40360;52.992;6.796;2023-03-14T04:07:36;16.42;;;5.80;;
54125;SDS011;40360;52.992;6.796;2023-03-14T04:10:05;11.35;;;5.25;;
54125;SDS011;40360;52.992;6.796;2023-03-14T04:12:31;12.55;;;5.50;;
54125;SDS011;40360;52.992;6.796;2023-03-14T04:15:00;24.58;;;6.03;;
54125;SDS011;40360;52.992;6.796;2023-03-14T04:17:26;15.80;;;5.72;;
54125;SDS011;40360;52.992;6.796;2023-03-14T04:19:55;15.57;;;5.95;;
54125;SDS011;40360;52.992;6.796;2023-03-14T04:22:28;15.00;;;6.10;;
54125;SDS011;40360;52.992;6.796;2023-03-14T04:25:01;14.80;;;5.93;;
54125;SDS011;40360;52.992;6.796;2023-03-14T04:30:19;14.38;;;5.93;;
54125;SDS011;40360;52.992;6.796;2023-03-14T04:33:51;15.18;;;5.53;;
54125;SDS011;40360;52.992;6.796;2023-03-14T04:36:17;16.23;;;5.75;;
54125;SDS011;40360;52.992;6.796;2023-03-14T04:38:52;17.40;;;6.35;;
54125;SDS011;40360;52.992;6.796;2023-03-14T04:41:24;13.25;;;5.60;;
54125;SDS011;40360;52.992;6.796;2023-03-14T04:43:50;15.13;;;6.07;;
54125;SDS011;40360;52.992;6.796;2023-03-14T04:46:23;8.45;;;4.18;;
54125;SDS011;40360;52.992;6.796;2023-03-14T04:48:51;11.40;;;5.75;;
54125;SDS011;40360;52.992;6.796;2023-03-14T04:51:31;14.43;;;4.70;;
54125;SDS011;40360;52.992;6.796;2023-03-14T04:54:09;13.35;;;4.63;;
54125;SDS011;40360;52.992;6.796;2023-03-14T04:56:35;9.70;;;4.32;;
54125;SDS011;40360;52.992;6.796;2023-03-14T04:59:03;13.63;;;5.28;;
54125;SDS011;40360;52.992;6.796;2023-03-14T05:01:29;11.65;;;5.22;;
54125;SDS011;40360;52.992;6.796;2023-03-14T05:03:55;14.38;;;4.80;;
54125;SDS011;40360;52.992;6.796;2023-03-14T05:06:34;16.73;;;5.55;;
54125;SDS011;40360;52.992;6.796;2023-03-14T05:09:00;10.25;;;5.05;;
54125;SDS011;40360;52.992;6.796;2023-03-14T05:11:38;10.90;;;4.57;;
54125;SDS011;40360;52.992;6.796;2023-03-14T05:14:04;17.88;;;6.05;;
54125;SDS011;40360;52.992;6.796;2023-03-14T05:16:29;12.68;;;5.60;;
54125;SDS011;40360;52.992;6.796;2023-03-14T05:18:56;15.15;;;5.90;;
54125;SDS011;40360;52.992;6.796;2023-03-14T05:21:22;11.32;;;5.95;;
54125;SDS011;40360;52.992;6.796;2023-03-14T05:23:52;11.88;;;5.55;;
54125;SDS011;40360;52.992;6.796;2023-03-14T05:26:17;15.02;;;6.05;;
54125;SDS011;40360;52.992;6.796;2023-03-14T05:28:52;14.27;;;5.78;;
54125;SDS011;40360;52.992;6.796;2023-03-14T05:31:19;14.43;;;6.25;;
54125;SDS011;40360;52.992;6.796;2023-03-14T05:33:45;10.90;;;5.15;;
54125;SDS011;40360;52.992;6.796;2023-03-14T05:36:14;11.70;;;6.25;;
54125;SDS011;40360;52.992;6.796;2023-03-14T05:38:42;15.05;;;5.88;;
54125;SDS011;40360;52.992;6.796;2023-03-14T05:41:20;12.43;;;6.63;;
54125;SDS011;40360;52.992;6.796;2023-03-14T06:01:43;13.93;;;7.47;;
54125;SDS011;40360;52.992;6.796;2023-03-14T06:04:09;18.08;;;7.60;;
54125;SDS011;40360;52.992;6.796;2023-03-14T06:06:34;15.05;;;7.50;;
54125;SDS011;40360;52.992;6.796;2023-03-14T06:09:00;14.60;;;7.60;;
54125;SDS011;40360;52.992;6.796;2023-03-14T06:11:26;17.20;;;7.40;;
54125;SDS011;40360;52.992;6.796;2023-03-14T06:13:52;17.30;;;6.88;;
54125;SDS011;40360;52.992;6.796;2023-03-14T06:16:17;18.35;;;8.50;;
54125;SDS011;40360;52.992;6.796;2023-03-14T06:18:43;13.48;;;7.10;;
54125;SDS011;40360;52.992;6.796;2023-03-14T06:21:12;19.50;;;6.97;;
54125;SDS011;40360;52.992;6.796;2023-03-14T06:23:38;10.40;;;5.90;;
54125;SDS011;40360;52.992;6.796;2023-03-14T06:26:04;11.25;;;5.55;;
54125;SDS011;40360;52.992;6.796;2023-03-14T06:28:30;13.27;;;6.38;;
54125;SDS011;40360;52.992;6.796;2023-03-14T06:30:56;12.50;;;4.80;;
54125;SDS011;40360;52.992;6.796;2023-03-14T06:33:23;7.90;;;4.68;;
54125;SDS011;40360;52.992;6.796;2023-03-14T06:35:48;7.97;;;4.97;;
54125;SDS011;40360;52.992;6.796;2023-03-14T06:38:14;6.25;;;3.63;;
54125;SDS011;40360;52.992;6.796;2023-03-14T06:40:40;9.25;;;4.38;;
54125;SDS011;40360;52.992;6.796;2023-03-14T06:43:06;7.07;;;4.30;;
54125;SDS011;40360;52.992;6.796;2023-03-14T06:45:31;9.88;;;4.78;;
54125;SDS011;40360;52.992;6.796;2023-03-14T06:47:57;7.70;;;3.83;;
54125;SDS011;40360;52.992;6.796;2023-03-14T06:50:23;6.95;;;3.72;;
54125;SDS011;40360;52.992;6.796;2023-03-14T06:52:49;11.18;;;4.20;;
54125;SDS011;40360;52.992;6.796;2023-03-14T06:55:17;10.02;;;5.07;;
54125;SDS011;40360;52.992;6.796;2023-03-14T06:57:43;8.65;;;4.25;;
54125;SDS011;40360;52.992;6.796;2023-03-14T07:00:10;8.45;;;4.35;;
54125;SDS011;40360;52.992;6.796;2023-03-14T07:02:37;9.02;;;4.10;;
54125;SDS011;40360;52.992;6.796;2023-03-14T07:05:03;7.38;;;4.63;;
54125;SDS011;40360;52.992;6.796;2023-03-14T07:07:29;7.35;;;3.92;;
54125;SDS011;40360;52.992;6.796;2023-03-14T07:09:55;10.55;;;4.47;;
54125;SDS011;40360;52.992;6.796;2023-03-14T07:12:21;11.07;;;5.88;;
54125;SDS011;40360;52.992;6.796;2023-03-14T07:14:47;10.73;;;5.57;;
54125;SDS011;40360;52.992;6.796;2023-03-14T07:17:12;10.10;;;4.47;;
54125;SDS011;40360;52.992;6.796;2023-03-14T07:19:38;5.68;;;1.40;;
54125;SDS011;40360;52.992;6.796;2023-03-14T07:22:04;4.00;;;1.30;;
54125;SDS011;40360;52.992;6.796;2023-03-14T07:24:30;4.47;;;1.27;;
54125;SDS011;40360;52.992;6.796;2023-03-14T07:26:56;6.20;;;1.50;;
54125;SDS011;40360;52.992;6.796;2023-03-14T07:29:21;11.88;;;2.45;;
54125;SDS011;40360;52.992;6.796;2023-03-14T07:31:47;7.80;;;1.73;;
54125;SDS011;40360;52.992;6.796;2023-03-14T07:34:13;5.57;;;1.20;;
54125;SDS011;40360;52.992;6.796;2023-03-14T07:36:38;6.13;;;1.40;;
54125;SDS011;40360;52.992;6.796;2023-03-14T07:39:04;7.35;;;1.60;;
54125;SDS011;40360;52.992;6.796;2023-03-14T07:41:30;11.68;;;2.63;;
54125;SDS011;40360;52.992;6.796;2023-03-14T07:43:56;10.55;;;1.70;;
54125;SDS011;40360;52.992;6.796;2023-03-14T07:46:22;12.07;;;2.13;;
54125;SDS011;40360;52.992;6.796;2023-03-14T07:48:47;9.13;;;1.30;;
54125;SDS011;40360;52.992;6.796;2023-03-14T07:51:13;5.80;;;0.90;;
54125;SDS011;40360;52.992;6.796;2023-03-14T07:53:39;2.63;;;0.80;;
54125;SDS011;40360;52.992;6.796;2023-03-14T07:56:05;8.18;;;1.58;;
54125;SDS011;40360;52.992;6.796;2023-03-14T07:58:31;3.65;;;0.70;;
54125;SDS011;40360;52.992;6.796;2023-03-14T08:00:58;7.00;;;1.08;;
54125;SDS011;40360;52.992;6.796;2023-03-14T08:03:24;5.95;;;1.25;;
54125;SDS011;40360;52.992;6.796;2023-03-14T08:05:50;4.95;;;1.08;;
54125;SDS011;40360;52.992;6.796;2023-03-14T08:08:16;1.63;;;0.77;;
54125;SDS011;40360;52.992;6.796;2023-03-14T08:10:43;3.45;;;0.40;;
54125;SDS011;40360;52.992;6.796;2023-03-14T08:13:09;3.75;;;0.70;;
54125;SDS011;40360;52.992;6.796;2023-03-14T08:15:35;1.77;;;0.60;;
54125;SDS011;40360;52.992;6.796;2023-03-14T08:18:01;2.88;;;0.57;;
54125;SDS011;40360;52.992;6.796;2023-03-14T08:20:28;3.50;;;0.70;;
54125;SDS011;40360;52.992;6.796;2023-03-14T08:22:58;1.75;;;0.52;;
54125;SDS011;40360;52.992;6.796;2023-03-14T08:25:25;1.08;;;0.43;;
54125;SDS011;40360;52.992;6.796;2023-03-14T08:27:52;1.35;;;0.43;;
54125;SDS011;40360;52.992;6.796;2023-03-14T08:30:18;3.08;;;0.60;;
54125;SDS011;40360;52.992;6.796;2023-03-14T08:32:45;3.55;;;0.50;;
54125;SDS011;40360;52.992;6.796;2023-03-14T08:35:11;1.92;;;0.40;;
54125;SDS011;40360;52.992;6.796;2023-03-14T08:37:37;1.55;;;0.70;;
54125;SDS011;40360;52.992;6.796;2023-03-14T08:40:04;3.35;;;0.40;;
54125;SDS011;40360;52.992;6.796;2023-03-14T08:42:38;3.38;;;0.73;;
54125;SDS011;40360;52.992;6.796;2023-03-14T08:45:05;4.32;;;0.55;;
54125;SDS011;40360;52.992;6.796;2023-03-14T08:47:32;6.60;;;0.90;;
54125;SDS011;40360;52.992;6.796;2023-03-14T08:49:57;2.08;;;0.73;;
54125;SDS011;40360;52.992;6.796;2023-03-14T08:52:23;5.00;;;0.80;;
54125;SDS011;40360;52.992;6.796;2023-03-14T08:54:49;2.53;;;0.82;;
54125;SDS011;40360;52.992;6.796;2023-03-14T08:57:14;3.47;;;0.93;;
54125;SDS011;40360;52.992;6.796;2023-03-14T08:59:41;4.30;;;1.23;;
54125;SDS011;40360;52.992;6.796;2023-03-14T09:02:09;3.65;;;1.15;;
54125;SDS011;40360;52.992;6.796;2023-03-14T09:04:37;7.80;;;1.40;;
54125;SDS011;40360;52.992;6.796;2023-03-14T09:07:03;6.43;;;1.17;;
54125;SDS011;40360;52.992;6.796;2023-03-14T09:09:29;6.80;;;1.13;;
54125;SDS011;40360;52.992;6.796;2023-03-14T09:11:55;12.68;;;2.08;;
54125;SDS011;40360;52.992;6.796;2023-03-14T09:14:21;8.40;;;1.33;;
54125;SDS011;40360;52.992;6.796;2023-03-14T09:16:47;9.10;;;2.13;;
54125;SDS011;40360;52.992;6.796;2023-03-14T09:19:13;4.20;;;1.08;;
54125;SDS011;40360;52.992;6.796;2023-03-14T09:21:39;7.68;;;1.60;;
54125;SDS011;40360;52.992;6.796;2023-03-14T09:24:05;6.93;;;1.90;;
54125;SDS011;40360;52.992;6.796;2023-03-14T09:26:30;8.63;;;1.95;;
54125;SDS011;40360;52.992;6.796;2023-03-14T09:28:59;8.13;;;2.08;;
54125;SDS011;40360;52.992;6.796;2023-03-14T09:31:25;10.18;;;2.13;;
54125;SDS011;40360;52.992;6.796;2023-03-14T09:33:50;16.83;;;3.08;;
54125;SDS011;40360;52.992;6.796;2023-03-14T09:36:16;18.27;;;2.42;;
54125;SDS011;40360;52.992;6.796;2023-03-14T09:38:42;13.63;;;2.72;;
54125;SDS011;40360;52.992;6.796;2023-03-14T09:41:50;14.45;;;3.13;;
54125;SDS011;40360;52.992;6.796;2023-03-14T09:44:00;16.13;;;3.35;;
54125;SDS011;40360;52.992;6.796;2023-03-14T09:46:34;8.73;;;2.47;;
54125;SDS011;40360;52.992;6.796;2023-03-14T09:49:05;11.63;;;3.00;;
54125;SDS011;40360;52.992;6.796;2023-03-14T09:51:45;14.30;;;2.75;;
54125;SDS011;40360;52.992;6.796;2023-03-14T09:54:26;19.48;;;3.97;;
54125;SDS011;40360;52.992;6.796;2023-03-14T09:57:14;17.83;;;2.97;;
54125;SDS011;40360;52.992;6.796;2023-03-14T09:59:44;11.77;;;3.03;;
54125;SDS011;40360;52.992;6.796;2023-03-14T10:02:14;16.38;;;2.63;;
54125;SDS011;40360;52.992;6.796;2023-03-14T10:04:45;16.75;;;2.72;;
54125;SDS011;40360;52.992;6.796;2023-03-14T10:07:13;16.13;;;3.40;;
54125;SDS011;40360;52.992;6.796;2023-03-14T10:09:42;12.65;;;2.78;;
54125;SDS011;40360;52.992;6.796;2023-03-14T10:12:09;15.63;;;2.97;;
54125;SDS011;40360;52.992;6.796;2023-03-14T10:14:36;31.42;;;4.57;;
54125;SDS011;40360;52.992;6.796;2023-03-14T10:17:11;15.35;;;3.50;;
54125;SDS011;40360;52.992;6.796;2023-03-14T10:19:41;19.67;;;4.10;;
54125;SDS011;40360;52.992;6.796;2023-03-14T10:22:18;19.95;;;3.70;;
54125;SDS011;40360;52.992;6.796;2023-03-14T10:24:54;24.30;;;4.05;;
54125;SDS011;40360;52.992;6.796;2023-03-14T10:27:32;15.85;;;4.07;;
54125;SDS011;40360;52.992;6.796;2023-03-14T10:30:06;18.00;;;3.88;;
54125;SDS011;40360;52.992;6.796;2023-03-14T10:33:37;14.50;;;3.42;;
54125;SDS011;40360;52.992;6.796;2023-03-14T10:35:46;18.40;;;3.25;;
54125;SDS011;40360;52.992;6.796;2023-03-14T10:38:18;17.52;;;3.67;;
54125;SDS011;40360;52.992;6.796;2023-03-14T10:40:48;29.38;;;4.15;;
54125;SDS011;40360;52.992;6.796;2023-03-14T10:43:19;21.67;;;3.67;;
54125;SDS011;40360;52.992;6.796;2023-03-14T10:48:53;23.50;;;4.85;;
54125;SDS011;40360;52.992;6.796;2023-03-14T10:51:22;16.38;;;4.88;;
54125;SDS011;40360;52.992;6.796;2023-03-14T10:53:55;16.48;;;4.68;;
54125;SDS011;40360;52.992;6.796;2023-03-14T10:56:25;13.82;;;3.13;;
54125;SDS011;40360;52.992;6.796;2023-03-14T10:58:53;14.00;;;2.90;;
54125;SDS011;40360;52.992;6.796;2023-03-14T11:01:41;20.85;;;3.42;;
54125;SDS011;40360;52.992;6.796;2023-03-14T11:07:11;15.52;;;2.95;;
54125;SDS011;40360;52.992;6.796;2023-03-14T11:09:45;17.88;;;3.50;;
54125;SDS011;40360;52.992;6.796;2023-03-14T11:12:34;11.70;;;2.78;;
54125;SDS011;40360;52.992;6.796;2023-03-14T11:15:02;10.70;;;2.47;;
54125;SDS011;40360;52.992;6.796;2023-03-14T11:17:54;12.40;;;2.72;;
54125;SDS011;40360;52.992;6.796;2023-03-14T11:20:38;10.88;;;2.63;;
54125;SDS011;40360;52.992;6.796;2023-03-14T11:23:16;20.60;;;2.90;;
54125;SDS011;40360;52.992;6.796;2023-03-14T11:28:23;6.68;;;2.33;;
54125;SDS011;40360;52.992;6.796;2023-03-14T11:31:16;10.30;;;2.03;;
54125;SDS011;40360;52.992;6.796;2023-03-14T11:37:05;12.23;;;2.05;;
54125;SDS011;40360;52.992;6.796;2023-03-14T11:39:40;7.50;;;2.45;;
54125;SDS011;40360;52.992;6.796;2023-03-14T11:42:15;10.40;;;2.95;;
54125;SDS011;40360;52.992;6.796;2023-03-14T11:44:46;10.30;;;2.03;;
54125;SDS011;40360;52.992;6.796;2023-03-14T11:53:03;13.02;;;1.95;;
54125;SDS011;40360;52.992;6.796;2023-03-14T11:55:34;15.27;;;1.73;;
54125;SDS011;40360;52.992;6.796;2023-03-14T11:58:09;8.65;;;1.73;;
54125;SDS011;40360;52.992;6.796;2023-03-14T12:00:46;7.20;;;1.98;;
54125;SDS011;40360;52.992;6.796;2023-03-14T12:03:31;9.15;;;1.80;;
54125;SDS011;40360;52.992;6.796;2023-03-14T12:08:50;9.95;;;2.13;;
54125;SDS011;40360;52.992;6.796;2023-03-14T12:14:16;6.28;;;1.60;;
54125;SDS011;40360;52.992;6.796;2023-03-14T12:16:49;8.27;;;1.88;;
54125;SDS011;40360;52.992;6.796;2023-03-14T12:24:26;4.80;;;1.42;;
54125;SDS011;40360;52.992;6.796;2023-03-14T12:26:56;8.32;;;2.42;;
54125;SDS011;40360;52.992;6.796;2023-03-14T12:29:23;12.95;;;1.77;;
54125;SDS011;40360;52.992;6.796;2023-03-14T12:32:09;8.20;;;1.80;;
54125;SDS011;40360;52.992;6.796;2023-03-14T12:34:48;9.23;;;2.05;;
54125;SDS011;40360;52.992;6.796;2023-03-14T12:40:26;7.07;;;1.70;;
54125;SDS011;40360;52.992;6.796;2023-03-14T12:43:03;10.07;;;1.92;;
54125;SDS011;40360;52.992;6.796;2023-03-14T12:45:31;5.78;;;1.58;;
54125;SDS011;40360;52.992;6.796;2023-03-14T12:50:43;9.13;;;2.38;;
54125;SDS011;40360;52.992;6.796;2023-03-14T13:02:17;9.15;;;1.73;;
54125;SDS011;40360;52.992;6.796;2023-03-14T13:07:01;4.38;;;1.63;;
54125;SDS011;40360;52.992;6.796;2023-03-14T13:11:55;7.72;;;2.03;;
54125;SDS011;40360;52.992;6.796;2023-03-14T13:14:25;12.68;;;2.10;;
54125;SDS011;40360;52.992;6.796;2023-03-14T13:16:53;12.90;;;2.40;;
54125;SDS011;40360;52.992;6.796;2023-03-14T13:19:29;12.73;;;2.60;;
54125;SDS011;40360;52.992;6.796;2023-03-14T13:22:00;7.53;;;1.98;;
54125;SDS011;40360;52.992;6.796;2023-03-14T13:24:33;6.43;;;2.20;;
54125;SDS011;40360;52.992;6.796;2023-03-14T13:26:59;10.40;;;1.88;;
54125;SDS011;40360;52.992;6.796;2023-03-14T13:29:26;9.63;;;2.58;;
54125;SDS011;40360;52.992;6.796;2023-03-14T13:31:56;17.38;;;3.08;;
54125;SDS011;40360;52.992;6.796;2023-03-14T13:34:24;14.35;;;2.38;;
54125;SDS011;40360;52.992;6.796;2023-03-14T13:36:54;11.93;;;1.88;;
54125;SDS011;40360;52.992;6.796;2023-03-14T13:39:24;13.90;;;3.10;;
54125;SDS011;40360;52.992;6.796;2023-03-14T13:41:51;12.73;;;2.60;;
54125;SDS011;40360;52.992;6.796;2023-03-14T13:44:25;10.00;;;2.03;;
54125;SDS011;40360;52.992;6.796;2023-03-14T13:46:59;10.95;;;2.40;;
54125;SDS011;40360;52.992;6.796;2023-03-14T13:49:26;13.48;;;2.72;;
54125;SDS011;40360;52.992;6.796;2023-03-14T13:51:56;9.25;;;1.70;;
54125;SDS011;40360;52.992;6.796;2023-03-14T13:54:22;6.72;;;2.00;;
54125;SDS011;40360;52.992;6.796;2023-03-14T13:56:58;11.15;;;2.10;;
54125;SDS011;40360;52.992;6.796;2023-03-14T13:59:29;9.63;;;2.15;;
54125;SDS011;40360;52.992;6.796;2023-03-14T14:02:00;7.35;;;1.67;;
54125;SDS011;40360;52.992;6.796;2023-03-14T14:04:37;11.10;;;1.90;;
54125;SDS011;40360;52.992;6.796;2023-03-14T14:07:09;6.90;;;1.50;;
54125;SDS011;40360;52.992;6.796;2023-03-14T14:09:45;7.88;;;2.22;;
54125;SDS011;40360;52.992;6.796;2023-03-14T14:12:20;5.22;;;1.63;;
54125;SDS011;40360;52.992;6.796;2023-03-14T14:15:04;10.35;;;1.80;;
54125;SDS011;40360;52.992;6.796;2023-03-14T14:23:03;8.10;;;1.52;;
54125;SDS011;40360;52.992;6.796;2023-03-14T14:25:30;9.32;;;1.80;;
54125;SDS011;40360;52.992;6.796;2023-03-14T14:27:58;12.10;;;1.75;;
54125;SDS011;40360;52.992;6.796;2023-03-14T14:30:28;15.45;;;2.75;;
54125;SDS011;40360;52.992;6.796;2023-03-14T14:33:11;6.70;;;1.65;;
54125;SDS011;40360;52.992;6.796;2023-03-14T14:36:05;10.18;;;1.67;;
54125;SDS011;40360;52.992;6.796;2023-03-14T14:38:36;11.38;;;1.98;;
54125;SDS011;40360;52.992;6.796;2023-03-14T14:41:02;11.60;;;2.00;;
54125;SDS011;40360;52.992;6.796;2023-03-14T14:43:29;8.10;;;1.73;;
54125;SDS011;40360;52.992;6.796;2023-03-14T14:45:59;12.50;;;2.05;;
54125;SDS011;40360;52.992;6.796;2023-03-14T14:48:26;7.32;;;1.70;;
54125;SDS011;40360;52.992;6.796;2023-03-14T14:53:38;7.35;;;1.60;;
54125;SDS011;40360;52.992;6.796;2023-03-14T14:56:07;6.57;;;1.45;;
54125;SDS011;40360;52.992;6.796;2023-03-14T14:58:40;5.78;;;1.48;;
54125;SDS011;40360;52.992;6.796;2023-03-14T15:01:17;5.63;;;1.60;;
54125;SDS011;40360;52.992;6.796;2023-03-14T15:03:48;4.88;;;1.58;;
54125;SDS011;40360;52.992;6.796;2023-03-14T15:06:18;8.43;;;1.55;;
54125;SDS011;40360;52.992;6.796;2023-03-14T15:08:45;8.93;;;1.80;;
54125;SDS011;40360;52.992;6.796;2023-03-14T15:11:16;4.75;;;1.80;;
54125;SDS011;40360;52.992;6.796;2023-03-14T15:13:44;13.05;;;2.13;;
54125;SDS011;40360;52.992;6.796;2023-03-14T15:16:10;8.35;;;2.15;;
54125;SDS011;40360;52.992;6.796;2023-03-14T15:18:37;10.65;;;1.75;;
54125;SDS011;40360;52.992;6.796;2023-03-14T15:21:03;10.82;;;2.50;;
54125;SDS011;40360;52.992;6.796;2023-03-14T15:23:30;10.48;;;2.33;;
54125;SDS011;40360;52.992;6.796;2023-03-14T15:25:55;10.55;;;2.53;;
54125;SDS011;40360;52.992;6.796;2023-03-14T15:28:22;9.00;;;2.05;;
54125;SDS011;40360;52.992;6.796;2023-03-14T15:30:53;8.18;;;1.95;;
54125;SDS011;40360;52.992;6.796;2023-03-14T15:33:21;10.18;;;2.38;;
54125;SDS011;40360;52.992;6.796;2023-03-14T15:35:47;9.45;;;1.67;;
54125;SDS011;40360;52.992;6.796;2023-03-14T15:38:16;7.88;;;1.98;;
54125;SDS011;40360;52.992;6.796;2023-03-14T15:40:46;12.23;;;2.78;;
54125;SDS011;40360;52.992;6.796;2023-03-14T15:43:12;9.20;;;1.83;;
54125;SDS011;40360;52.992;6.796;2023-03-14T15:45:38;7.40;;;1.70;;
54125;SDS011;40360;52.992;6.796;2023-03-14T15:48:04;11.52;;;2.15;;
54125;SDS011;40360;52.992;6.796;2023-03-14T15:50:30;9.35;;;1.90;;
54125;SDS011;40360;52.992;6.796;2023-03-14T15:52:56;15.82;;;2.40;;
54125;SDS011;40360;52.992;6.796;2023-03-14T15:55:21;6.07;;;1.80;;
54125;SDS011;40360;52.992;6.796;2023-03-14T15:57:48;3.40;;;1.23;;
54125;SDS011;40360;52.992;6.796;2023-03-14T16:00:15;7.22;;;1.55;;
54125;SDS011;40360;52.992;6.796;2023-03-14T16:02:43;7.03;;;1.48;;
54125;SDS011;40360;52.992;6.796;2023-03-14T16:05:10;8.63;;;1.48;;
54125;SDS011;40360;52.992;6.796;2023-03-14T16:07:37;6.22;;;2.22;;
54125;SDS011;40360;52.992;6.796;2023-03-14T16:10:04;8.32;;;2.22;;
54125;SDS011;40360;52.992;6.796;2023-03-14T16:12:31;9.18;;;1.60;;
54125;SDS011;40360;52.992;6.796;2023-03-14T16:14:57;9.98;;;2.42;;
54125;SDS011;40360;52.992;6.796;2023-03-14T16:17:23;9.70;;;3.03;;
54125;SDS011;40360;52.992;6.796;2023-03-14T16:19:49;5.57;;;1.92;;
54125;SDS011;40360;52.992;6.796;2023-03-14T16:22:15;5.57;;;1.13;;
54125;SDS011;40360;52.992;6.796;2023-03-14T16:24:41;3.78;;;1.40;;
54125;SDS011;40360;52.992;6.796;2023-03-14T16:27:06;4.78;;;1.48;;
54125;SDS011;40360;52.992;6.796;2023-03-14T16:29:32;6.13;;;1.73;;
54125;SDS011;40360;52.992;6.796;2023-03-14T16:31:58;5.63;;;1.40;;
54125;SDS011;40360;52.992;6.796;2023-03-14T16:34:23;8.35;;;1.45;;